Terminal Aerodrome Forecast
Issued by NWS

Home | Current Version | Previous Version | Graphics & Text | Print | Product List | Glossary On
Versions: 1 2 3 4 5 6 7 8 9 10 11 12 13
000
FTUS43 KBIS 241726
TAFDIK
TAF
KDIK 241726Z 2418/2518 19011KT P6SM FEW090 FEW250
     FM250000 24011G19KT P6SM FEW110 FEW200
     FM250200 VRB03KT P6SM FEW110 FEW200
     FM251400 02009KT P6SM BKN200=

USA.gov is the U.S. government's official web portal to all federal, state and local government web resources and services.